createdAt,value
2022-11-15T00:00:11.712Z,93705.78
2022-11-15T00:01:17.351Z,93696.56
2022-11-15T00:02:18.779Z,93698.44
2022-11-15T00:03:23.720Z,93690.38
2022-11-15T00:04:25.203Z,93690.09
2022-11-15T00:05:26.700Z,93691.91
2022-11-15T00:06:28.153Z,93692.25
2022-11-15T00:07:54.133Z,93680.91
2022-11-15T00:08:51.078Z,93685.75
2022-11-15T00:09:52.471Z,93678.84
2022-11-15T00:10:57.679Z,93680.59
2022-11-15T00:11:59.111Z,93676.50
2022-11-15T00:13:00.520Z,93672.91
2022-11-15T00:14:01.966Z,93673.56
2022-11-15T00:15:03.788Z,93678.34
2022-11-15T00:16:05.960Z,93682.34
2022-11-15T00:17:07.433Z,93678.53
2022-11-15T00:18:13.570Z,93686.16
2022-11-15T00:19:16.296Z,93679.50
2022-11-15T00:20:18.263Z,93677.63
2022-11-15T00:21:19.694Z,93677.91
2022-11-15T00:22:21.162Z,93672.09
2022-11-15T00:23:23.147Z,93683.72
2022-11-15T00:24:24.552Z,93676.63
2022-11-15T00:25:26.152Z,93679.25
2022-11-15T00:26:27.586Z,93675.81
2022-11-15T00:27:29.033Z,93679.47
2022-11-15T00:28:31.006Z,93683.38
2022-11-15T00:29:32.471Z,93682.47
2022-11-15T00:30:33.875Z,93686.25
2022-11-15T00:31:35.265Z,93682.81
2022-11-15T00:32:36.664Z,93680.97
2022-11-15T00:33:38.124Z,93678.19
2022-11-15T00:34:40.909Z,93676.56
2022-11-15T00:35:42.330Z,93683.41
2022-11-15T00:36:43.755Z,93682.19
2022-11-15T00:37:45.198Z,93681.41
2022-11-15T00:38:46.697Z,93684.16
2022-11-15T00:39:48.155Z,93676.91
2022-11-15T00:40:49.590Z,93682.38
2022-11-15T00:41:50.996Z,93686.19
2022-11-15T00:42:52.441Z,93681.59
2022-11-15T00:43:53.880Z,93678.72
2022-11-15T00:44:55.316Z,93682.25
2022-11-15T00:45:56.848Z,93689.59
2022-11-15T00:46:58.478Z,93680.38
2022-11-15T00:47:59.930Z,93673.53
2022-11-15T00:49:01.317Z,93676.72
2022-11-15T00:50:04.825Z,93671.53
2022-11-15T00:51:06.473Z,93669.13
2022-11-15T00:52:07.967Z,93670.69
2022-11-15T00:53:09.514Z,93659.06
2022-11-15T00:54:10.935Z,93662.53
2022-11-15T00:55:15.047Z,93655.44
2022-11-15T00:56:16.484Z,93654.31
2022-11-15T00:57:17.887Z,93662.75
2022-11-15T00:58:19.663Z,93651.34
2022-11-15T00:59:21.112Z,93648.34
2022-11-15T01:00:22.828Z,93653.31
2022-11-15T01:01:24.407Z,93651.50
2022-11-15T01:02:25.874Z,93648.78
2022-11-15T01:03:27.299Z,93652.69
2022-11-15T01:04:28.758Z,93646.25
2022-11-15T01:05:31.528Z,93640.09
2022-11-15T01:06:32.979Z,93651.00
2022-11-15T01:07:34.496Z,93642.97
2022-11-15T01:08:36.086Z,93651.53
2022-11-15T01:09:37.557Z,93654.22
2022-11-15T01:10:39.053Z,93651.06
2022-11-15T01:11:40.474Z,93653.78
2022-11-15T01:12:41.882Z,93651.88
2022-11-15T01:13:43.330Z,93653.63
2022-11-15T01:14:44.808Z,93654.31
2022-11-15T01:15:46.251Z,93652.13
2022-11-15T01:16:47.679Z,93645.44
2022-11-15T01:17:49.091Z,93641.91
2022-11-15T01:18:51.516Z,93634.56
2022-11-15T01:19:52.954Z,93642.00
2022-11-15T01:20:55.714Z,93646.09
2022-11-15T01:21:57.138Z,93633.88
2022-11-15T01:22:58.547Z,93632.78
2022-11-15T01:23:59.978Z,93636.78
2022-11-15T01:25:01.428Z,93631.41
2022-11-15T01:26:03.992Z,93637.03
2022-11-15T01:27:05.439Z,93634.69
2022-11-15T01:28:06.889Z,93640.00
2022-11-15T01:29:08.349Z,93639.66
2022-11-15T01:30:10.285Z,93634.75
2022-11-15T01:31:19.639Z,93632.41
2022-11-15T01:32:21.095Z,93632.50
2022-11-15T01:33:22.521Z,93627.91
2022-11-15T01:34:23.958Z,93627.50
2022-11-15T01:35:25.565Z,93628.53
2022-11-15T01:36:28.341Z,93623.38
2022-11-15T01:37:29.786Z,93627.63
2022-11-15T01:38:31.220Z,93624.88
2022-11-15T01:39:33.729Z,93620.94
2022-11-15T01:40:35.284Z,93617.56
2022-11-15T01:41:36.733Z,93618.66
2022-11-15T01:42:38.203Z,93617.25
2022-11-15T01:43:40.401Z,93616.78
2022-11-15T01:44:44.803Z,93615.19
2022-11-15T01:45:49.484Z,93618.84
2022-11-15T01:46:50.973Z,93614.66
2022-11-15T01:47:54.439Z,93611.03
2022-11-15T01:48:59.317Z,93617.09
2022-11-15T01:50:04.644Z,93611.47
2022-11-15T01:51:09.897Z,93613.09
2022-11-15T01:52:15.956Z,93612.38
2022-11-15T01:53:20.113Z,93606.53
2022-11-15T01:54:24.037Z,93605.50
2022-11-15T01:55:28.701Z,93603.88
2022-11-15T01:56:33.230Z,93601.25
2022-11-15T01:57:35.316Z,93602.06
2022-11-15T01:58:37.702Z,93603.69
2022-11-15T01:59:43.994Z,93605.28
2022-11-15T02:00:45.596Z,93599.56
2022-11-15T02:01:47.759Z,93600.56
2022-11-15T02:02:49.202Z,93599.56
2022-11-15T02:03:56.269Z,93602.22
2022-11-15T02:04:57.850Z,93597.94
2022-11-15T02:05:59.999Z,93590.78
2022-11-15T02:07:04.268Z,93589.72
2022-11-15T02:08:07.754Z,93599.88
2022-11-15T02:09:09.379Z,93590.47
2022-11-15T02:10:13.681Z,93590.22
2022-11-15T02:11:15.164Z,93583.34
2022-11-15T02:12:21.476Z,93593.09
2022-11-15T02:13:23.572Z,93595.47
2022-11-15T02:14:28.309Z,93592.09
2022-11-15T02:15:38.477Z,93591.78
2022-11-15T02:16:45.951Z,93595.56
2022-11-15T02:18:11.015Z,93591.47
2022-11-15T02:19:30.263Z,93583.97
2022-11-15T02:20:56.184Z,93578.44
2022-11-15T02:22:11.815Z,93579.91
2022-11-15T02:23:39.703Z,93579.56
2022-11-15T02:25:02.136Z,93584.97
2022-11-15T02:26:31.785Z,93579.53
2022-11-15T02:28:07.229Z,93581.72
2022-11-15T02:29:11.672Z,93577.63
2022-11-15T02:30:28.535Z,93569.75
2022-11-15T02:31:39.172Z,93569.75
2022-11-15T02:32:48.952Z,93564.88
2022-11-15T02:34:01.162Z,93563.59
2022-11-15T02:35:09.112Z,93566.09
2022-11-15T02:36:15.985Z,93563.63
2022-11-15T02:37:27.045Z,93565.00
2022-11-15T02:38:38.730Z,93569.25
2022-11-15T02:39:47.489Z,93562.88
2022-11-15T02:40:55.020Z,93563.69
2022-11-15T02:42:03.098Z,93556.41
2022-11-15T02:43:09.753Z,93558.78
2022-11-15T02:44:18.505Z,93557.75
2022-11-15T02:45:27.833Z,93548.78
2022-11-15T02:46:35.729Z,93550.03
2022-11-15T02:47:44.360Z,93545.88
2022-11-15T02:48:46.374Z,93554.41
2022-11-15T02:49:50.972Z,93551.31
2022-11-15T02:50:53.182Z,93547.47
2022-11-15T02:51:56.700Z,93543.34
2022-11-15T02:52:58.329Z,93542.50
2022-11-15T02:53:59.731Z,93543.72
2022-11-15T02:55:02.345Z,93544.16
2022-11-15T02:56:04.365Z,93541.91
2022-11-15T02:57:13.266Z,93542.97
2022-11-15T02:58:38.555Z,93539.50
2022-11-15T02:59:59.990Z,93541.63
2022-11-15T03:01:09.396Z,93538.63
2022-11-15T03:02:21.317Z,93541.09
2022-11-15T03:03:43.321Z,93541.25
2022-11-15T03:04:51.311Z,93541.03
2022-11-15T03:05:59.871Z,93543.66
2022-11-15T03:07:07.806Z,93547.31
2022-11-15T03:08:15.030Z,93547.75
2022-11-15T03:09:28.520Z,93539.63
2022-11-15T03:10:38.235Z,93543.66
2022-11-15T03:11:48.219Z,93544.69
2022-11-15T03:12:56.276Z,93545.19
2022-11-15T03:14:01.147Z,93549.44
2022-11-15T03:15:07.438Z,93551.28
2022-11-15T03:16:16.580Z,93539.59
2022-11-15T03:17:24.709Z,93546.09
2022-11-15T03:18:32.843Z,93545.19
2022-11-15T03:19:41.412Z,93548.94
2022-11-15T03:20:43.740Z,93538.88
2022-11-15T03:21:47.535Z,93543.44
2022-11-15T03:22:51.273Z,93539.00
2022-11-15T03:23:55.281Z,93534.81
2022-11-15T03:25:01.745Z,93541.91
2022-11-15T03:26:08.185Z,93536.69
2022-11-15T03:27:13.628Z,93539.78
2022-11-15T03:28:22.947Z,93537.72
2022-11-15T03:29:28.852Z,93533.09
2022-11-15T03:30:33.894Z,93535.34
2022-11-15T03:31:50.043Z,93536.69
2022-11-15T03:32:55.773Z,93538.09
2022-11-15T03:33:59.901Z,93539.06
2022-11-15T03:35:03.966Z,93536.00
2022-11-15T03:36:06.094Z,93536.81
2022-11-15T03:37:09.288Z,93536.63
2022-11-15T03:38:18.019Z,93530.31
2022-11-15T03:39:21.792Z,93534.31
2022-11-15T03:40:30.342Z,93531.19
2022-11-15T03:41:40.423Z,93522.75
2022-11-15T03:42:47.724Z,93526.44
2022-11-15T03:43:56.493Z,93524.34
2022-11-15T03:45:03.381Z,93525.47
2022-11-15T03:46:09.157Z,93529.16
2022-11-15T03:47:16.579Z,93520.88
2022-11-15T03:48:22.574Z,93526.22
2022-11-15T03:49:29.731Z,93524.72
2022-11-15T03:50:31.365Z,93522.56
2022-11-15T03:51:33.048Z,93525.25
2022-11-15T03:52:35.386Z,93526.91
2022-11-15T03:53:36.881Z,93528.81
2022-11-15T03:54:49.154Z,93524.72
2022-11-15T03:55:50.663Z,93516.41
2022-11-15T03:56:52.157Z,93524.72
2022-11-15T03:57:57.195Z,93523.53
2022-11-15T03:58:58.695Z,93524.84
2022-11-15T04:00:00.116Z,93523.34
2022-11-15T04:01:01.640Z,93527.06
2022-11-15T04:02:03.081Z,93523.63
2022-11-15T04:03:05.815Z,93528.22
2022-11-15T04:04:07.222Z,93529.47
2022-11-15T04:05:09.102Z,93528.66
2022-11-15T04:06:10.538Z,93524.50
2022-11-15T04:07:12.353Z,93520.19
2022-11-15T04:08:14.083Z,93510.94
2022-11-15T04:09:15.528Z,93514.31
2022-11-15T04:10:17.224Z,93512.56
2022-11-15T04:11:18.661Z,93519.97
2022-11-15T04:12:20.066Z,93512.00
2022-11-15T04:13:21.469Z,93510.88
2022-11-15T04:14:22.932Z,93513.28
2022-11-15T04:15:25.111Z,93503.50
2022-11-15T04:16:26.627Z,93503.19
2022-11-15T04:17:28.058Z,93505.56
2022-11-15T04:18:30.825Z,93505.31
2022-11-15T04:19:32.236Z,93507.25
2022-11-15T04:20:33.711Z,93503.31
2022-11-15T04:21:35.182Z,93505.00
2022-11-15T04:22:36.635Z,93506.09
2022-11-15T04:23:38.069Z,93502.94
2022-11-15T04:24:39.515Z,93501.84
2022-11-15T04:25:42.390Z,93504.47
2022-11-15T04:26:43.833Z,93501.22
2022-11-15T04:27:45.278Z,93497.84
2022-11-15T04:28:46.775Z,93503.84
2022-11-15T04:29:48.210Z,93498.38
2022-11-15T04:30:49.983Z,93502.03
2022-11-15T04:31:51.445Z,93502.97
2022-11-15T04:32:52.883Z,93505.59
2022-11-15T04:33:56.683Z,93500.56
2022-11-15T04:34:58.116Z,93499.28
2022-11-15T04:35:59.563Z,93495.06
2022-11-15T04:37:00.982Z,93498.94
2022-11-15T04:38:04.949Z,93497.44
2022-11-15T04:39:06.445Z,93492.00
2022-11-15T04:40:09.216Z,93497.91
2022-11-15T04:41:10.651Z,93489.91
2022-11-15T04:42:12.208Z,93491.44
2022-11-15T04:43:13.606Z,93497.78
2022-11-15T04:44:15.050Z,93489.69
2022-11-15T04:45:16.657Z,93488.09
2022-11-15T04:46:18.383Z,93494.66
2022-11-15T04:47:19.810Z,93492.66
2022-11-15T04:48:21.318Z,93490.34
2022-11-15T04:49:24.144Z,93495.31
2022-11-15T04:50:25.600Z,93486.19
2022-11-15T04:51:27.167Z,93486.44
2022-11-15T04:52:28.597Z,93484.06
2022-11-15T04:53:30.326Z,93490.28
2022-11-15T04:54:32.025Z,93486.00
2022-11-15T04:55:33.569Z,93486.16
2022-11-15T04:56:35.050Z,93488.44
2022-11-15T04:57:36.641Z,93493.69
2022-11-15T04:58:38.692Z,93487.78
2022-11-15T04:59:40.185Z,93488.16
2022-11-15T05:00:41.657Z,93492.97
2022-11-15T05:01:45.011Z,93490.63
2022-11-15T05:02:46.820Z,93485.88
2022-11-15T05:03:48.315Z,93490.97
2022-11-15T05:04:51.085Z,93495.94
2022-11-15T05:05:52.523Z,93490.69
2022-11-15T05:06:54.059Z,93489.81
2022-11-15T05:07:55.559Z,93487.47
2022-11-15T05:08:57.377Z,93492.31
2022-11-15T05:09:58.837Z,93487.19
2022-11-15T05:11:00.299Z,93485.19
2022-11-15T05:12:01.743Z,93478.31
2022-11-15T05:13:03.168Z,93484.53
2022-11-15T05:14:04.604Z,93487.97
2022-11-15T05:15:07.250Z,93486.28
2022-11-15T05:16:08.670Z,93482.56
2022-11-15T05:17:10.068Z,93480.31
2022-11-15T05:18:11.695Z,93484.56
2022-11-15T05:19:13.344Z,93485.72
2022-11-15T05:20:16.297Z,93485.09
2022-11-15T05:21:18.309Z,93478.84
2022-11-15T05:22:20.159Z,93479.09
2022-11-15T05:23:21.645Z,93484.72
2022-11-15T05:24:23.068Z,93484.06
2022-11-15T05:25:25.148Z,93477.75
2022-11-15T05:26:26.835Z,93481.78
2022-11-15T05:27:28.277Z,93482.22
2022-11-15T05:28:29.935Z,93481.63
2022-11-15T05:29:31.431Z,93482.91
2022-11-15T05:30:32.878Z,93479.41
2022-11-15T05:31:34.330Z,93490.06
2022-11-15T05:32:35.771Z,93492.06
2022-11-15T05:33:39.402Z,93490.59
2022-11-15T05:34:41.138Z,93484.88
2022-11-15T05:35:49.832Z,93486.06
2022-11-15T05:36:51.460Z,93490.41
2022-11-15T05:37:52.903Z,93481.47
2022-11-15T05:38:54.768Z,93474.34
2022-11-15T05:39:56.162Z,93478.13
2022-11-15T05:40:57.842Z,93477.22
2022-11-15T05:42:05.209Z,93478.84
2022-11-15T05:43:06.980Z,93477.06
2022-11-15T05:44:11.243Z,93477.66
2022-11-15T05:45:12.786Z,93474.78
2022-11-15T05:46:14.707Z,93474.59
2022-11-15T05:47:20.494Z,93474.44
2022-11-15T05:48:21.969Z,93468.81
2022-11-15T05:49:28.086Z,93474.16
2022-11-15T05:50:29.532Z,93464.44
2022-11-15T05:51:32.414Z,93469.81
2022-11-15T05:52:37.960Z,93465.81
2022-11-15T05:53:39.450Z,93463.03
2022-11-15T05:54:41.702Z,93462.53
2022-11-15T05:55:43.347Z,93463.72
2022-11-15T05:56:44.942Z,93456.56
2022-11-15T05:57:46.432Z,93464.00
2022-11-15T05:58:48.074Z,93456.22
2022-11-15T05:59:49.569Z,93456.88
2022-11-15T06:00:51.204Z,93456.41
2022-11-15T06:01:52.695Z,93461.00
2022-11-15T06:02:54.198Z,93459.03
2022-11-15T06:03:55.694Z,93458.91
2022-11-15T06:04:57.196Z,93455.16
2022-11-15T06:05:58.762Z,93457.94
2022-11-15T06:07:01.572Z,93454.88
2022-11-15T06:08:03.294Z,93453.13
2022-11-15T06:09:04.732Z,93450.84
2022-11-15T06:10:07.443Z,93454.53
2022-11-15T06:11:08.893Z,93456.25
2022-11-15T06:12:10.414Z,93445.38
2022-11-15T06:13:11.903Z,93445.63
2022-11-15T06:14:13.339Z,93449.88
2022-11-15T06:15:14.892Z,93443.00
2022-11-15T06:16:16.295Z,93442.53
2022-11-15T06:17:17.728Z,93444.63
2022-11-15T06:18:19.157Z,93448.31
2022-11-15T06:19:20.589Z,93447.00
2022-11-15T06:20:22.012Z,93450.31
2022-11-15T06:21:23.837Z,93457.28
2022-11-15T06:22:26.603Z,93443.63
2022-11-15T06:23:28.982Z,93451.78
2022-11-15T06:24:30.599Z,93454.03
2022-11-15T06:25:32.484Z,93450.13
2022-11-15T06:26:33.966Z,93446.66
2022-11-15T06:27:35.468Z,93440.66
2022-11-15T06:28:36.887Z,93452.91
2022-11-15T06:29:38.392Z,93444.56
2022-11-15T06:30:39.958Z,93450.63
2022-11-15T06:31:41.457Z,93449.38
2022-11-15T06:32:42.915Z,93448.97
2022-11-15T06:33:44.351Z,93444.91
2022-11-15T06:34:45.778Z,93454.16
2022-11-15T06:35:47.222Z,93455.03
2022-11-15T06:36:48.680Z,93447.44
2022-11-15T06:37:51.469Z,93453.22
2022-11-15T06:38:52.928Z,93459.03
2022-11-15T06:39:54.375Z,93459.03
2022-11-15T06:40:55.831Z,93454.75
2022-11-15T06:41:57.260Z,93461.00
2022-11-15T06:42:59.610Z,93454.81
2022-11-15T06:44:01.158Z,93460.88
2022-11-15T06:45:03.420Z,93454.06
2022-11-15T06:46:06.379Z,93458.31
2022-11-15T06:47:07.820Z,93458.72
2022-11-15T06:48:09.258Z,93457.72
2022-11-15T06:49:10.699Z,93455.69
2022-11-15T06:50:12.127Z,93463.47
2022-11-15T06:51:13.554Z,93460.63
2022-11-15T06:52:15.196Z,93456.03
2022-11-15T06:53:18.001Z,93454.28
2022-11-15T06:54:19.416Z,93464.06
2022-11-15T06:55:21.085Z,93454.06
2022-11-15T06:56:22.508Z,93452.88
2022-11-15T06:57:23.936Z,93453.41
2022-11-15T06:58:25.401Z,93458.00
2022-11-15T06:59:26.803Z,93460.16
2022-11-15T07:00:28.522Z,93463.56
2022-11-15T07:01:30.079Z,93459.66
2022-11-15T07:02:31.798Z,93457.16
2022-11-15T07:03:36.211Z,93457.59
2022-11-15T07:04:37.633Z,93461.28
2022-11-15T07:05:39.092Z,93458.91
2022-11-15T07:06:40.506Z,93466.69
2022-11-15T07:07:42.047Z,93463.41
2022-11-15T07:08:44.807Z,93464.56
2022-11-15T07:09:46.207Z,93462.53
2022-11-15T07:10:47.714Z,93465.09
2022-11-15T07:11:49.188Z,93466.69
2022-11-15T07:12:51.072Z,93467.56
2022-11-15T07:13:52.479Z,93473.78
2022-11-15T07:14:53.944Z,93469.31
2022-11-15T07:15:55.660Z,93465.56
2022-11-15T07:16:57.109Z,93466.44
2022-11-15T07:18:01.520Z,93464.53
2022-11-15T07:19:02.938Z,93461.34
2022-11-15T07:20:05.435Z,93457.16
2022-11-15T07:21:08.551Z,93455.09
2022-11-15T07:22:09.984Z,93467.53
2022-11-15T07:23:11.460Z,93460.88
2022-11-15T07:24:14.249Z,93456.56
2022-11-15T07:25:15.857Z,93459.16
2022-11-15T07:26:17.480Z,93458.53
2022-11-15T07:27:19.226Z,93459.34
2022-11-15T07:28:20.730Z,93452.81
2022-11-15T07:29:22.157Z,93457.06
2022-11-15T07:30:24.028Z,93453.31
2022-11-15T07:31:25.455Z,93457.13
2022-11-15T07:32:27.052Z,93453.19
2022-11-15T07:33:28.694Z,93448.44
2022-11-15T07:34:30.335Z,93445.97
2022-11-15T07:35:31.794Z,93444.72
2022-11-15T07:36:33.230Z,93444.78
2022-11-15T07:37:34.656Z,93436.00
2022-11-15T07:38:42.172Z,93446.53
2022-11-15T07:39:45.522Z,93443.78
2022-11-15T07:40:47.780Z,93441.50
2022-11-15T07:41:49.195Z,93438.16
2022-11-15T07:42:50.646Z,93430.19
2022-11-15T07:43:52.523Z,93428.78
2022-11-15T07:44:54.023Z,93428.03
2022-11-15T07:45:59.155Z,93430.66
2022-11-15T07:47:01.105Z,93432.06
2022-11-15T07:48:02.700Z,93429.72
2022-11-15T07:49:04.818Z,93429.16
2022-11-15T07:50:06.888Z,93428.78
2022-11-15T07:51:13.993Z,93425.88
2022-11-15T07:52:16.052Z,93428.56
2022-11-15T07:53:17.528Z,93427.59
2022-11-15T07:54:18.989Z,93425.78
2022-11-15T07:55:21.836Z,93430.56
2022-11-15T07:56:23.276Z,93424.94
2022-11-15T07:57:24.711Z,93421.13
2022-11-15T07:58:26.180Z,93424.88
2022-11-15T07:59:27.596Z,93418.19
2022-11-15T08:00:29.200Z,93413.59
2022-11-15T08:01:30.673Z,93407.72
2022-11-15T08:02:32.551Z,93411.94
2022-11-15T08:03:34.723Z,93409.94
2022-11-15T08:04:36.398Z,93401.13
2022-11-15T08:05:39.574Z,93415.94
2022-11-15T08:06:41.104Z,93406.25
2022-11-15T08:07:42.653Z,93406.84
2022-11-15T08:08:44.087Z,93405.47
2022-11-15T08:09:45.517Z,93405.13
2022-11-15T08:10:48.331Z,93398.22
2022-11-15T08:11:49.734Z,93408.19
2022-11-15T08:12:58.053Z,93408.16
2022-11-15T08:13:59.833Z,93404.25
2022-11-15T08:15:01.390Z,93401.59
2022-11-15T08:16:04.030Z,93404.31
2022-11-15T08:17:05.452Z,93401.41
2022-11-15T08:18:11.160Z,93403.66
2022-11-15T08:19:12.607Z,93402.38
2022-11-15T08:20:14.661Z,93402.06
2022-11-15T08:21:19.837Z,93400.25
2022-11-15T08:22:21.306Z,93398.31
2022-11-15T08:23:22.767Z,93393.34
2022-11-15T08:24:24.281Z,93398.66
2022-11-15T08:25:26.622Z,93392.97
2022-11-15T08:26:29.517Z,93389.25
2022-11-15T08:27:31.226Z,93390.25
2022-11-15T08:28:33.390Z,93390.25
2022-11-15T08:29:34.834Z,93394.56
2022-11-15T08:30:39.066Z,93394.03
2022-11-15T08:31:40.612Z,93394.59
2022-11-15T08:32:42.042Z,93398.56
2022-11-15T08:33:44.272Z,93394.78
2022-11-15T08:34:45.690Z,93398.25
2022-11-15T08:35:47.236Z,93393.19
2022-11-15T08:36:48.728Z,93398.47
2022-11-15T08:37:50.180Z,93392.53
2022-11-15T08:38:51.623Z,93400.63
2022-11-15T08:39:53.103Z,93397.97
2022-11-15T08:41:02.174Z,93395.72
2022-11-15T08:42:05.043Z,93394.63
2022-11-15T08:43:06.672Z,93401.00
2022-11-15T08:44:08.104Z,93393.88
2022-11-15T08:45:10.559Z,93394.72
2022-11-15T08:46:13.879Z,93399.44
2022-11-15T08:47:15.323Z,93400.69
2022-11-15T08:48:16.760Z,93401.47
2022-11-15T08:49:18.210Z,93400.41
2022-11-15T08:50:19.642Z,93393.03
2022-11-15T08:51:21.139Z,93392.69
2022-11-15T08:52:22.634Z,93394.50
2022-11-15T08:53:24.083Z,93394.16
2022-11-15T08:54:25.507Z,93387.13
2022-11-15T08:55:26.953Z,93387.66
2022-11-15T08:56:28.414Z,93389.28
2022-11-15T08:57:31.369Z,93386.25
2022-11-15T08:58:33.127Z,93383.06
2022-11-15T08:59:34.752Z,93384.50
2022-11-15T09:00:36.307Z,93392.97
2022-11-15T09:01:37.818Z,93385.84
2022-11-15T09:02:39.539Z,93381.78
2022-11-15T09:03:41.409Z,93381.25
2022-11-15T09:04:43.670Z,93377.78
2022-11-15T09:05:45.104Z,93376.59
2022-11-15T09:06:46.589Z,93375.97
2022-11-15T09:07:48.275Z,93371.94
2022-11-15T09:08:49.695Z,93378.84
2022-11-15T09:09:51.090Z,93365.41
2022-11-15T09:10:52.632Z,93371.72
2022-11-15T09:11:58.052Z,93369.31
2022-11-15T09:13:03.875Z,93362.78
2022-11-15T09:14:05.364Z,93361.16
2022-11-15T09:15:07.904Z,93359.34
2022-11-15T09:16:09.317Z,93358.94
2022-11-15T09:17:11.083Z,93352.63
2022-11-15T09:18:12.571Z,93350.22
2022-11-15T09:19:14.010Z,93353.28
2022-11-15T09:20:16.329Z,93347.78
2022-11-15T09:21:17.727Z,93343.53
2022-11-15T09:22:19.292Z,93340.25
2022-11-15T09:23:20.736Z,93352.44
2022-11-15T09:24:22.173Z,93345.78
2022-11-15T09:25:23.638Z,93339.91
2022-11-15T09:26:25.573Z,93345.13
2022-11-15T09:27:28.362Z,93354.06
2022-11-15T09:28:31.833Z,93357.28
2022-11-15T09:29:33.583Z,93351.03
2022-11-15T09:30:35.244Z,93356.28
2022-11-15T09:31:37.095Z,93358.31
2022-11-15T09:32:39.526Z,93358.91
2022-11-15T09:33:41.084Z,93362.75
2022-11-15T09:34:42.545Z,93359.91
2022-11-15T09:35:43.960Z,93355.88
2022-11-15T09:36:45.455Z,93363.16
2022-11-15T09:37:47.020Z,93357.88
2022-11-15T09:38:49.196Z,93366.25
2022-11-15T09:39:50.694Z,93363.78
2022-11-15T09:41:09.055Z,93365.47
2022-11-15T09:42:24.987Z,93361.41
2022-11-15T09:43:39.019Z,93358.56
2022-11-15T09:44:53.604Z,93357.31
2022-11-15T09:46:06.313Z,93355.72
2022-11-15T09:47:35.730Z,93358.34
2022-11-15T09:48:50.775Z,93356.69
2022-11-15T09:49:56.707Z,93344.75
2022-11-15T09:50:59.508Z,93350.44
2022-11-15T09:52:01.440Z,93343.97
2022-11-15T09:53:03.121Z,93345.16
2022-11-15T09:55:40.915Z,93338.44
2022-11-15T09:56:44.850Z,93347.59
2022-11-15T09:57:53.997Z,93351.84
2022-11-15T09:59:09.468Z,93342.31
2022-11-15T10:00:48.206Z,93337.97
2022-11-15T10:01:45.832Z,93332.59
2022-11-15T10:03:05.350Z,93337.16
2022-11-15T10:04:10.809Z,93329.25
2022-11-15T10:05:21.579Z,93332.56
2022-11-15T10:06:26.006Z,93332.56
2022-11-15T10:07:32.224Z,93333.34
2022-11-15T10:08:54.424Z,93334.59
2022-11-15T10:10:02.371Z,93323.44
2022-11-15T10:11:36.762Z,93324.63
2022-11-15T10:12:30.203Z,93325.66
2022-11-15T10:13:34.321Z,93327.72
2022-11-15T10:14:37.563Z,93329.13
2022-11-15T10:15:39.080Z,93320.19
2022-11-15T10:17:07.293Z,93317.75
2022-11-15T10:18:15.091Z,93314.94
2022-11-15T10:19:26.684Z,93322.44
2022-11-15T10:20:29.970Z,93310.84
2022-11-15T10:21:51.970Z,93319.75
2022-11-15T10:22:56.656Z,93315.22
2022-11-15T10:23:59.417Z,93314.22
2022-11-15T10:25:13.816Z,93312.47
2022-11-15T10:26:17.412Z,93310.72
2022-11-15T10:27:20.248Z,93301.66
2022-11-15T10:28:26.730Z,93303.72
2022-11-15T10:29:28.144Z,93299.41
2022-11-15T10:30:36.587Z,93302.44
2022-11-15T10:31:42.045Z,93298.00
2022-11-15T10:32:45.409Z,93301.06
2022-11-15T10:33:46.875Z,93294.13
2022-11-15T10:34:49.549Z,93298.34
2022-11-15T10:36:16.340Z,93300.78
2022-11-15T10:37:29.428Z,93304.03
2022-11-15T10:38:31.059Z,93303.59
2022-11-15T10:39:32.783Z,93302.34
2022-11-15T10:40:34.963Z,93305.03
2022-11-15T10:41:39.169Z,93299.72
2022-11-15T10:42:40.628Z,93302.66
2022-11-15T10:43:42.542Z,93304.16
2022-11-15T10:44:45.252Z,93305.72
2022-11-15T10:45:48.272Z,93302.72
2022-11-15T10:47:05.883Z,93292.69
2022-11-15T10:48:24.803Z,93298.44
2022-11-15T10:49:28.432Z,93290.13
2022-11-15T10:50:31.786Z,93295.81
2022-11-15T10:51:40.990Z,93289.91
2022-11-15T10:52:47.311Z,93293.81
2022-11-15T10:53:49.865Z,93289.25
2022-11-15T10:54:56.010Z,93294.13
2022-11-15T10:56:01.496Z,93289.84
2022-11-15T10:57:08.671Z,93292.63
2022-11-15T10:58:24.168Z,93291.34
2022-11-15T10:59:29.115Z,93288.72
2022-11-15T11:00:35.337Z,93280.69
2022-11-15T11:01:47.222Z,93278.91
2022-11-15T11:02:59.054Z,93283.72
2022-11-15T11:04:02.320Z,93277.72
2022-11-15T11:05:06.834Z,93282.97
2022-11-15T11:06:11.481Z,93276.19
2022-11-15T11:07:23.135Z,93277.19
2022-11-15T11:08:25.660Z,93268.00
2022-11-15T11:09:33.941Z,93276.03
2022-11-15T11:10:52.393Z,93269.38
2022-11-15T11:11:56.270Z,93263.47
2022-11-15T11:13:13.884Z,93273.91
2022-11-15T11:14:22.112Z,93265.13
2022-11-15T11:15:28.136Z,93259.59
2022-11-15T11:16:44.422Z,93258.00
2022-11-15T11:18:02.617Z,93260.16
2022-11-15T11:19:15.756Z,93261.75
2022-11-15T11:20:26.276Z,93259.59
2022-11-15T11:21:40.128Z,93250.31
2022-11-15T11:22:55.918Z,93257.31
2022-11-15T11:24:05.964Z,93249.38
2022-11-15T11:25:27.877Z,93247.09
2022-11-15T11:26:41.641Z,93244.75
2022-11-15T11:28:00.242Z,93243.75
2022-11-15T11:29:13.908Z,93243.50
2022-11-15T11:30:19.954Z,93241.19
2022-11-15T11:31:28.466Z,93233.59
2022-11-15T11:32:54.813Z,93242.00
2022-11-15T11:34:10.616Z,93237.34
2022-11-15T11:35:15.240Z,93237.06
2022-11-15T11:36:26.234Z,93238.94
2022-11-15T11:37:40.350Z,93240.88
2022-11-15T11:38:52.878Z,93236.31
2022-11-15T11:40:19.773Z,93240.88
2022-11-15T11:41:47.619Z,93229.31
2022-11-15T11:42:56.535Z,93238.50
2022-11-15T11:44:15.956Z,93230.81
2022-11-15T11:45:27.637Z,93229.91
2022-11-15T11:46:47.786Z,93233.34
2022-11-15T11:47:58.503Z,93220.66
2022-11-15T11:49:05.188Z,93215.72
2022-11-15T11:50:14.060Z,93224.34
2022-11-15T11:51:21.688Z,93224.94
2022-11-15T11:52:28.886Z,93227.88
2022-11-15T11:53:38.628Z,93228.50
2022-11-15T11:54:48.848Z,93224.34
2022-11-15T11:55:53.768Z,93226.66
2022-11-15T11:56:55.888Z,93228.09
2022-11-15T11:58:06.146Z,93223.31
2022-11-15T11:59:17.368Z,93228.09
2022-11-15T12:00:21.475Z,93226.03
2022-11-15T12:01:25.446Z,93226.13
2022-11-15T12:02:31.502Z,93227.06
2022-11-15T12:03:40.789Z,93225.91
2022-11-15T12:04:47.428Z,93225.75
2022-11-15T12:05:54.320Z,93221.69
2022-11-15T12:07:00.916Z,93216.84
2022-11-15T12:08:10.152Z,93221.00
2022-11-15T12:09:18.334Z,93222.56
2022-11-15T12:10:24.708Z,93224.31
2022-11-15T12:11:31.471Z,93225.31
2022-11-15T12:12:39.240Z,93224.66
2022-11-15T12:13:42.976Z,93225.00
2022-11-15T12:14:47.818Z,93219.84
2022-11-15T12:15:58.915Z,93219.13
2022-11-15T12:17:00.836Z,93222.66
2022-11-15T12:18:02.372Z,93217.66
2022-11-15T12:19:05.342Z,93223.13
2022-11-15T12:20:17.016Z,93215.25
2022-11-15T12:21:28.763Z,93218.34
2022-11-15T12:22:39.773Z,93223.56
2022-11-15T12:23:46.783Z,93225.56
2022-11-15T12:24:55.136Z,93219.31
2022-11-15T12:26:01.203Z,93218.59
2022-11-15T12:27:08.316Z,93217.50
2022-11-15T12:28:18.653Z,93217.19
2022-11-15T12:29:27.069Z,93214.41
2022-11-15T12:30:41.360Z,93204.03
2022-11-15T12:31:48.521Z,93207.47
2022-11-15T12:32:52.952Z,93208.59
2022-11-15T12:33:57.248Z,93199.53
2022-11-15T12:35:01.889Z,93200.84
2022-11-15T12:36:05.486Z,93195.66
2022-11-15T12:37:51.902Z,93198.50
2022-11-15T12:38:58.534Z,93200.88
2022-11-15T12:40:25.890Z,93198.66